sensor_id;sensor_type;location;lat;lon;timestamp;temperature;humidity
19868;DHT22;10096;51.112;6.776;2023-05-27T00:01:05;12.30;99.90
19868;DHT22;10096;51.112;6.776;2023-05-27T00:03:33;12.30;99.90
19868;DHT22;10096;51.112;6.776;2023-05-27T00:06:05;12.00;99.90
19868;DHT22;10096;51.112;6.776;2023-05-27T00:08:33;12.20;99.90
19868;DHT22;10096;51.112;6.776;2023-05-27T00:11:02;12.10;99.90
19868;DHT22;10096;51.112;6.776;2023-05-27T00:13:33;12.30;99.90
19868;DHT22;10096;51.112;6.776;2023-05-27T00:16:00;12.10;99.90
19868;DHT22;10096;51.112;6.776;2023-05-27T00:18:31;12.10;99.90
19868;DHT22;10096;51.112;6.776;2023-05-27T00:21:01;11.90;99.90
19868;DHT22;10096;51.112;6.776;2023-05-27T00:23:30;12.10;99.90
19868;DHT22;10096;51.112;6.776;2023-05-27T00:25:58;11.80;99.90
19868;DHT22;10096;51.112;6.776;2023-05-27T00:28:27;12.10;99.90
19868;DHT22;10096;51.112;6.776;2023-05-27T00:30:59;12.00;99.90
19868;DHT22;10096;51.112;6.776;2023-05-27T00:33:27;11.90;99.90
19868;DHT22;10096;51.112;6.776;2023-05-27T00:35:55;11.90;99.90
19868;DHT22;10096;51.112;6.776;2023-05-27T00:38:24;11.80;99.90
19868;DHT22;10096;51.112;6.776;2023-05-27T00:40:53;11.80;99.90
19868;DHT22;10096;51.112;6.776;2023-05-27T00:43:21;11.80;99.90
19868;DHT22;10096;51.112;6.776;2023-05-27T00:45:53;11.80;99.90
19868;DHT22;10096;51.112;6.776;2023-05-27T00:48:24;11.70;99.90
19868;DHT22;10096;51.112;6.776;2023-05-27T00:50:55;11.50;99.90
19868;DHT22;10096;51.112;6.776;2023-05-27T00:53:24;11.70;99.90
19868;DHT22;10096;51.112;6.776;2023-05-27T00:55:53;11.80;99.90
19868;DHT22;10096;51.112;6.776;2023-05-27T00:58:21;11.60;99.90
19868;DHT22;10096;51.112;6.776;2023-05-27T01:00:49;11.70;99.90
19868;DHT22;10096;51.112;6.776;2023-05-27T01:03:18;11.60;99.90
19868;DHT22;10096;51.112;6.776;2023-05-27T01:05:48;11.50;99.90
19868;DHT22;10096;51.112;6.776;2023-05-27T01:08:24;11.50;99.90
19868;DHT22;10096;51.112;6.776;2023-05-27T01:10:56;11.50;99.90
19868;DHT22;10096;51.112;6.776;2023-05-27T01:13:31;11.40;99.90
19868;DHT22;10096;51.112;6.776;2023-05-27T01:16:02;11.40;99.90
19868;DHT22;10096;51.112;6.776;2023-05-27T01:18:33;11.50;99.90
19868;DHT22;10096;51.112;6.776;2023-05-27T01:21:07;11.40;99.90
19868;DHT22;10096;51.112;6.776;2023-05-27T01:23:41;11.30;99.90
19868;DHT22;10096;51.112;6.776;2023-05-27T01:26:10;11.30;1.00
19868;DHT22;10096;51.112;6.776;2023-05-27T01:28:39;11.20;99.90
19868;DHT22;10096;51.112;6.776;2023-05-27T01:31:12;11.20;99.90
19868;DHT22;10096;51.112;6.776;2023-05-27T01:33:44;11.30;99.90
19868;DHT22;10096;51.112;6.776;2023-05-27T01:36:17;11.20;99.90
19868;DHT22;10096;51.112;6.776;2023-05-27T01:38:50;11.10;99.90
19868;DHT22;10096;51.112;6.776;2023-05-27T01:41:19;11.10;1.00
19868;DHT22;10096;51.112;6.776;2023-05-27T01:43:49;11.10;1.00
19868;DHT22;10096;51.112;6.776;2023-05-27T01:46:19;11.10;1.00
19868;DHT22;10096;51.112;6.776;2023-05-27T01:48:48;11.00;1.00
19868;DHT22;10096;51.112;6.776;2023-05-27T01:51:16;10.70;1.00
19868;DHT22;10096;51.112;6.776;2023-05-27T01:53:45;11.00;1.00
19868;DHT22;10096;51.112;6.776;2023-05-27T01:56:14;10.90;1.00
19868;DHT22;10096;51.112;6.776;2023-05-27T01:58:42;11.00;1.00
19868;DHT22;10096;51.112;6.776;2023-05-27T02:01:11;10.90;1.00
19868;DHT22;10096;51.112;6.776;2023-05-27T02:03:56;10.50;1.00
19868;DHT22;10096;51.112;6.776;2023-05-27T02:06:24;10.90;1.00
19868;DHT22;10096;51.112;6.776;2023-05-27T02:08:53;10.90;1.00
19868;DHT22;10096;51.112;6.776;2023-05-27T02:11:22;10.80;1.00
19868;DHT22;10096;51.112;6.776;2023-05-27T02:13:53;10.70;1.00
19868;DHT22;10096;51.112;6.776;2023-05-27T02:16:22;10.80;1.00
19868;DHT22;10096;51.112;6.776;2023-05-27T02:18:50;10.70;1.00
19868;DHT22;10096;51.112;6.776;2023-05-27T02:21:18;10.70;1.00
19868;DHT22;10096;51.112;6.776;2023-05-27T02:23:47;10.70;1.00
19868;DHT22;10096;51.112;6.776;2023-05-27T02:26:15;10.70;1.00
19868;DHT22;10096;51.112;6.776;2023-05-27T02:28:44;10.60;1.00
19868;DHT22;10096;51.112;6.776;2023-05-27T02:31:15;10.70;1.00
19868;DHT22;10096;51.112;6.776;2023-05-27T02:33:52;10.60;1.00
19868;DHT22;10096;51.112;6.776;2023-05-27T02:36:22;10.60;1.00
19868;DHT22;10096;51.112;6.776;2023-05-27T02:38:53;10.70;1.00
19868;DHT22;10096;51.112;6.776;2023-05-27T02:41:22;10.50;1.00
19868;DHT22;10096;51.112;6.776;2023-05-27T02:43:51;10.60;1.00
19868;DHT22;10096;51.112;6.776;2023-05-27T02:46:19;10.40;1.00
19868;DHT22;10096;51.112;6.776;2023-05-27T02:48:48;10.50;1.00
19868;DHT22;10096;51.112;6.776;2023-05-27T02:51:16;10.60;1.00
19868;DHT22;10096;51.112;6.776;2023-05-27T02:53:45;10.40;1.00
19868;DHT22;10096;51.112;6.776;2023-05-27T02:56:14;10.60;1.00
19868;DHT22;10096;51.112;6.776;2023-05-27T02:58:45;9.90;1.00
19868;DHT22;10096;51.112;6.776;2023-05-27T03:01:16;10.30;1.00
19868;DHT22;10096;51.112;6.776;2023-05-27T03:03:44;10.20;1.00
19868;DHT22;10096;51.112;6.776;2023-05-27T03:06:12;10.30;1.00
19868;DHT22;10096;51.112;6.776;2023-05-27T03:08:41;10.30;1.00
19868;DHT22;10096;51.112;6.776;2023-05-27T03:11:08;10.20;1.00
19868;DHT22;10096;51.112;6.776;2023-05-27T03:13:37;10.00;1.00
19868;DHT22;10096;51.112;6.776;2023-05-27T03:16:06;10.40;1.00
19868;DHT22;10096;51.112;6.776;2023-05-27T03:18:35;10.20;1.00
19868;DHT22;10096;51.112;6.776;2023-05-27T03:21:03;10.10;1.00
19868;DHT22;10096;51.112;6.776;2023-05-27T03:23:32;10.10;1.00
19868;DHT22;10096;51.112;6.776;2023-05-27T03:26:04;9.80;1.00
19868;DHT22;10096;51.112;6.776;2023-05-27T03:28:32;10.00;1.00
19868;DHT22;10096;51.112;6.776;2023-05-27T03:31:00;10.10;1.00
19868;DHT22;10096;51.112;6.776;2023-05-27T03:33:31;10.00;1.00
19868;DHT22;10096;51.112;6.776;2023-05-27T03:36:03;10.10;1.00
19868;DHT22;10096;51.112;6.776;2023-05-27T03:38:31;9.70;1.00
19868;DHT22;10096;51.112;6.776;2023-05-27T03:40:59;10.00;1.00
19868;DHT22;10096;51.112;6.776;2023-05-27T03:43:30;10.10;1.00
19868;DHT22;10096;51.112;6.776;2023-05-27T03:46:01;10.20;1.00
19868;DHT22;10096;51.112;6.776;2023-05-27T03:48:29;9.90;1.00
19868;DHT22;10096;51.112;6.776;2023-05-27T03:50:59;10.20;1.00
19868;DHT22;10096;51.112;6.776;2023-05-27T03:53:29;10.30;1.00
19868;DHT22;10096;51.112;6.776;2023-05-27T03:55:59;10.50;1.00
19868;DHT22;10096;51.112;6.776;2023-05-27T03:58:28;10.50;1.00
19868;DHT22;10096;51.112;6.776;2023-05-27T04:00:57;11.00;1.00
19868;DHT22;10096;51.112;6.776;2023-05-27T04:03:26;11.30;1.00
19868;DHT22;10096;51.112;6.776;2023-05-27T04:05:54;11.50;1.00
19868;DHT22;10096;51.112;6.776;2023-05-27T04:08:22;11.80;1.00
19868;DHT22;10096;51.112;6.776;2023-05-27T04:10:56;12.20;1.00
19868;DHT22;10096;51.112;6.776;2023-05-27T04:13:27;12.30;1.00
19868;DHT22;10096;51.112;6.776;2023-05-27T04:15:56;12.70;99.90
19868;DHT22;10096;51.112;6.776;2023-05-27T04:18:25;13.00;99.90
19868;DHT22;10096;51.112;6.776;2023-05-27T04:20:53;13.60;99.90
19868;DHT22;10096;51.112;6.776;2023-05-27T04:23:21;13.50;99.90
19868;DHT22;10096;51.112;6.776;2023-05-27T04:25:49;13.80;99.90
19868;DHT22;10096;51.112;6.776;2023-05-27T04:28:20;14.10;99.90
19868;DHT22;10096;51.112;6.776;2023-05-27T04:30:48;14.50;99.90
19868;DHT22;10096;51.112;6.776;2023-05-27T04:33:16;14.80;99.90
19868;DHT22;10096;51.112;6.776;2023-05-27T04:35:45;15.10;99.90
19868;DHT22;10096;51.112;6.776;2023-05-27T04:38:13;15.40;99.90
19868;DHT22;10096;51.112;6.776;2023-05-27T04:40:43;15.90;99.90
19868;DHT22;10096;51.112;6.776;2023-05-27T04:43:12;16.20;99.90
19868;DHT22;10096;51.112;6.776;2023-05-27T04:45:42;16.50;99.90
19868;DHT22;10096;51.112;6.776;2023-05-27T04:48:13;16.70;99.90
19868;DHT22;10096;51.112;6.776;2023-05-27T04:50:46;16.90;99.90
19868;DHT22;10096;51.112;6.776;2023-05-27T04:53:15;17.30;99.90
19868;DHT22;10096;51.112;6.776;2023-05-27T04:55:46;17.50;99.90
19868;DHT22;10096;51.112;6.776;2023-05-27T04:58:14;18.10;99.90
19868;DHT22;10096;51.112;6.776;2023-05-27T05:00:44;18.30;99.90
19868;DHT22;10096;51.112;6.776;2023-05-27T05:03:19;18.60;99.90
19868;DHT22;10096;51.112;6.776;2023-05-27T05:06:02;18.80;99.90
19868;DHT22;10096;51.112;6.776;2023-05-27T05:08:30;18.80;99.90
19868;DHT22;10096;51.112;6.776;2023-05-27T05:10:59;18.50;99.90
19868;DHT22;10096;51.112;6.776;2023-05-27T05:13:28;18.70;99.90
19868;DHT22;10096;51.112;6.776;2023-05-27T05:16:00;18.90;99.90
19868;DHT22;10096;51.112;6.776;2023-05-27T05:18:28;19.30;99.90
19868;DHT22;10096;51.112;6.776;2023-05-27T05:21:02;19.80;99.90
19868;DHT22;10096;51.112;6.776;2023-05-27T05:23:31;20.00;99.90
19868;DHT22;10096;51.112;6.776;2023-05-27T05:25:59;20.60;99.90
19868;DHT22;10096;51.112;6.776;2023-05-27T05:28:33;20.90;99.90
19868;DHT22;10096;51.112;6.776;2023-05-27T05:31:03;21.30;99.90
19868;DHT22;10096;51.112;6.776;2023-05-27T05:33:32;21.70;99.90
19868;DHT22;10096;51.112;6.776;2023-05-27T05:36:03;21.70;99.90
19868;DHT22;10096;51.112;6.776;2023-05-27T05:38:31;21.90;99.90
19868;DHT22;10096;51.112;6.776;2023-05-27T05:41:00;21.20;99.90
19868;DHT22;10096;51.112;6.776;2023-05-27T05:43:28;21.50;99.90
19868;DHT22;10096;51.112;6.776;2023-05-27T05:45:57;21.90;99.90
19868;DHT22;10096;51.112;6.776;2023-05-27T05:48:30;22.30;99.90
19868;DHT22;10096;51.112;6.776;2023-05-27T05:50:58;22.20;99.90
19868;DHT22;10096;51.112;6.776;2023-05-27T05:53:26;22.50;99.90
19868;DHT22;10096;51.112;6.776;2023-05-27T05:55:55;23.00;99.90
19868;DHT22;10096;51.112;6.776;2023-05-27T05:58:23;23.40;99.90
19868;DHT22;10096;51.112;6.776;2023-05-27T06:00:51;23.00;99.90
19868;DHT22;10096;51.112;6.776;2023-05-27T06:03:18;22.80;99.90
19868;DHT22;10096;51.112;6.776;2023-05-27T06:05:48;23.10;99.90
19868;DHT22;10096;51.112;6.776;2023-05-27T06:08:17;23.80;99.90
19868;DHT22;10096;51.112;6.776;2023-05-27T06:10:45;24.40;99.90
19868;DHT22;10096;51.112;6.776;2023-05-27T06:13:13;24.20;99.90
19868;DHT22;10096;51.112;6.776;2023-05-27T06:15:41;24.70;99.90
19868;DHT22;10096;51.112;6.776;2023-05-27T06:18:09;25.30;99.90
19868;DHT22;10096;51.112;6.776;2023-05-27T06:20:37;25.60;99.90
19868;DHT22;10096;51.112;6.776;2023-05-27T06:23:08;25.80;99.90
19868;DHT22;10096;51.112;6.776;2023-05-27T06:25:36;25.70;99.90
19868;DHT22;10096;51.112;6.776;2023-05-27T06:28:04;26.00;99.90
19868;DHT22;10096;51.112;6.776;2023-05-27T06:30:32;25.80;99.90
19868;DHT22;10096;51.112;6.776;2023-05-27T06:33:02;25.70;99.90
19868;DHT22;10096;51.112;6.776;2023-05-27T06:35:31;26.00;99.90
19868;DHT22;10096;51.112;6.776;2023-05-27T06:37:59;25.80;99.90
19868;DHT22;10096;51.112;6.776;2023-05-27T06:40:28;25.80;99.90
19868;DHT22;10096;51.112;6.776;2023-05-27T06:42:56;25.60;99.90
19868;DHT22;10096;51.112;6.776;2023-05-27T06:45:46;25.40;99.90
19868;DHT22;10096;51.112;6.776;2023-05-27T06:48:14;25.70;99.90
19868;DHT22;10096;51.112;6.776;2023-05-27T06:50:45;25.50;99.90
19868;DHT22;10096;51.112;6.776;2023-05-27T06:53:17;26.00;99.90
19868;DHT22;10096;51.112;6.776;2023-05-27T06:55:50;26.00;99.90
19868;DHT22;10096;51.112;6.776;2023-05-27T06:58:19;25.80;99.90
19868;DHT22;10096;51.112;6.776;2023-05-27T07:00:47;25.70;99.90
19868;DHT22;10096;51.112;6.776;2023-05-27T07:03:15;26.40;99.90
19868;DHT22;10096;51.112;6.776;2023-05-27T07:05:45;26.20;99.90
19868;DHT22;10096;51.112;6.776;2023-05-27T07:08:13;26.10;99.90
19868;DHT22;10096;51.112;6.776;2023-05-27T07:10:42;26.20;99.90
19868;DHT22;10096;51.112;6.776;2023-05-27T07:13:12;25.60;99.90
19868;DHT22;10096;51.112;6.776;2023-05-27T07:15:41;25.80;99.90
19868;DHT22;10096;51.112;6.776;2023-05-27T07:18:12;26.30;99.90
19868;DHT22;10096;51.112;6.776;2023-05-27T07:20:40;26.40;99.90
19868;DHT22;10096;51.112;6.776;2023-05-27T07:23:10;26.50;99.90
19868;DHT22;10096;51.112;6.776;2023-05-27T07:25:38;27.10;99.90
19868;DHT22;10096;51.112;6.776;2023-05-27T07:28:06;26.70;99.90
19868;DHT22;10096;51.112;6.776;2023-05-27T07:30:37;26.50;99.90
19868;DHT22;10096;51.112;6.776;2023-05-27T07:33:05;26.60;99.90
19868;DHT22;10096;51.112;6.776;2023-05-27T07:35:34;26.80;99.90
19868;DHT22;10096;51.112;6.776;2023-05-27T07:38:03;27.20;99.90
19868;DHT22;10096;51.112;6.776;2023-05-27T07:40:33;27.20;99.90
19868;DHT22;10096;51.112;6.776;2023-05-27T07:43:01;27.20;99.90
19868;DHT22;10096;51.112;6.776;2023-05-27T07:45:36;27.30;99.90
19868;DHT22;10096;51.112;6.776;2023-05-27T07:48:03;26.70;99.90
19868;DHT22;10096;51.112;6.776;2023-05-27T07:50:31;26.70;99.90
19868;DHT22;10096;51.112;6.776;2023-05-27T07:53:01;26.60;99.90
19868;DHT22;10096;51.112;6.776;2023-05-27T07:55:30;26.40;99.90
19868;DHT22;10096;51.112;6.776;2023-05-27T07:57:58;26.40;99.90
19868;DHT22;10096;51.112;6.776;2023-05-27T08:00:26;26.70;99.90
19868;DHT22;10096;51.112;6.776;2023-05-27T08:03:01;26.80;99.90
19868;DHT22;10096;51.112;6.776;2023-05-27T08:05:31;26.90;99.90
19868;DHT22;10096;51.112;6.776;2023-05-27T08:07:59;26.30;99.90
19868;DHT22;10096;51.112;6.776;2023-05-27T08:10:29;26.70;99.90
19868;DHT22;10096;51.112;6.776;2023-05-27T08:12:57;27.30;99.90
19868;DHT22;10096;51.112;6.776;2023-05-27T08:15:25;27.30;99.90
19868;DHT22;10096;51.112;6.776;2023-05-27T08:17:53;27.00;99.90
19868;DHT22;10096;51.112;6.776;2023-05-27T08:20:23;27.40;99.90
19868;DHT22;10096;51.112;6.776;2023-05-27T08:22:52;27.40;99.90
19868;DHT22;10096;51.112;6.776;2023-05-27T08:25:20;27.50;99.90
19868;DHT22;10096;51.112;6.776;2023-05-27T08:27:55;27.80;99.90
19868;DHT22;10096;51.112;6.776;2023-05-27T08:30:29;28.40;99.90
19868;DHT22;10096;51.112;6.776;2023-05-27T08:32:59;27.90;99.90
19868;DHT22;10096;51.112;6.776;2023-05-27T08:35:29;27.90;99.90
19868;DHT22;10096;51.112;6.776;2023-05-27T08:37:57;27.60;99.90
19868;DHT22;10096;51.112;6.776;2023-05-27T08:40:27;27.80;99.90
19868;DHT22;10096;51.112;6.776;2023-05-27T08:42:55;27.50;99.90
19868;DHT22;10096;51.112;6.776;2023-05-27T08:45:25;27.70;99.90
19868;DHT22;10096;51.112;6.776;2023-05-27T08:47:54;28.10;99.90
19868;DHT22;10096;51.112;6.776;2023-05-27T08:50:22;28.20;99.90
19868;DHT22;10096;51.112;6.776;2023-05-27T08:52:53;27.90;99.90
19868;DHT22;10096;51.112;6.776;2023-05-27T08:55:22;28.00;99.90
19868;DHT22;10096;51.112;6.776;2023-05-27T08:57:53;27.90;99.90
19868;DHT22;10096;51.112;6.776;2023-05-27T09:00:22;27.90;99.90
19868;DHT22;10096;51.112;6.776;2023-05-27T09:02:51;28.40;99.90
19868;DHT22;10096;51.112;6.776;2023-05-27T09:05:23;28.40;99.90
19868;DHT22;10096;51.112;6.776;2023-05-27T09:07:56;27.90;99.90
19868;DHT22;10096;51.112;6.776;2023-05-27T09:10:36;27.40;99.90
19868;DHT22;10096;51.112;6.776;2023-05-27T09:13:04;27.30;99.90
19868;DHT22;10096;51.112;6.776;2023-05-27T09:15:32;27.10;99.90
19868;DHT22;10096;51.112;6.776;2023-05-27T09:18:01;26.50;99.90
19868;DHT22;10096;51.112;6.776;2023-05-27T09:20:33;25.40;99.90
19868;DHT22;10096;51.112;6.776;2023-05-27T09:23:03;24.70;99.90
19868;DHT22;10096;51.112;6.776;2023-05-27T09:25:35;24.60;99.90
19868;DHT22;10096;51.112;6.776;2023-05-27T09:28:05;24.50;99.90
19868;DHT22;10096;51.112;6.776;2023-05-27T09:30:33;24.40;99.90
19868;DHT22;10096;51.112;6.776;2023-05-27T09:33:04;24.00;99.90
19868;DHT22;10096;51.112;6.776;2023-05-27T09:35:39;23.90;99.90
19868;DHT22;10096;51.112;6.776;2023-05-27T09:38:10;23.80;99.90
19868;DHT22;10096;51.112;6.776;2023-05-27T09:40:39;24.00;99.90
19868;DHT22;10096;51.112;6.776;2023-05-27T09:43:08;24.30;99.90
19868;DHT22;10096;51.112;6.776;2023-05-27T09:45:42;24.60;99.90
19868;DHT22;10096;51.112;6.776;2023-05-27T09:48:12;24.90;99.90
19868;DHT22;10096;51.112;6.776;2023-05-27T09:50:43;25.00;99.90
19868;DHT22;10096;51.112;6.776;2023-05-27T09:53:14;25.00;99.90
19868;DHT22;10096;51.112;6.776;2023-05-27T09:55:43;24.80;99.90
19868;DHT22;10096;51.112;6.776;2023-05-27T09:58:12;24.40;99.90
19868;DHT22;10096;51.112;6.776;2023-05-27T10:00:41;24.40;99.90
19868;DHT22;10096;51.112;6.776;2023-05-27T10:03:13;24.10;99.90
19868;DHT22;10096;51.112;6.776;2023-05-27T10:05:43;24.10;99.90
19868;DHT22;10096;51.112;6.776;2023-05-27T10:08:13;24.30;99.90
19868;DHT22;10096;51.112;6.776;2023-05-27T10:10:42;24.60;99.90
19868;DHT22;10096;51.112;6.776;2023-05-27T10:13:12;24.30;99.90
19868;DHT22;10096;51.112;6.776;2023-05-27T10:15:50;24.20;99.90
19868;DHT22;10096;51.112;6.776;2023-05-27T10:18:26;24.40;99.90
19868;DHT22;10096;51.112;6.776;2023-05-27T10:20:57;24.50;99.90
19868;DHT22;10096;51.112;6.776;2023-05-27T10:23:28;24.10;99.90
19868;DHT22;10096;51.112;6.776;2023-05-27T10:26:01;24.00;99.90
19868;DHT22;10096;51.112;6.776;2023-05-27T10:28:31;24.20;99.90
19868;DHT22;10096;51.112;6.776;2023-05-27T10:31:05;24.20;99.90
19868;DHT22;10096;51.112;6.776;2023-05-27T10:33:37;24.30;99.90
19868;DHT22;10096;51.112;6.776;2023-05-27T10:36:10;24.20;99.90
19868;DHT22;10096;51.112;6.776;2023-05-27T10:38:54;23.90;99.90
19868;DHT22;10096;51.112;6.776;2023-05-27T10:41:22;23.50;99.90
19868;DHT22;10096;51.112;6.776;2023-05-27T10:43:55;23.80;99.90
19868;DHT22;10096;51.112;6.776;2023-05-27T10:46:25;24.10;99.90
19868;DHT22;10096;51.112;6.776;2023-05-27T10:49:15;23.70;99.90
19868;DHT22;10096;51.112;6.776;2023-05-27T10:51:43;24.00;99.90
19868;DHT22;10096;51.112;6.776;2023-05-27T10:54:16;24.00;99.90
19868;DHT22;10096;51.112;6.776;2023-05-27T10:56:48;24.40;99.90
19868;DHT22;10096;51.112;6.776;2023-05-27T10:59:19;24.70;99.90
19868;DHT22;10096;51.112;6.776;2023-05-27T11:01:51;24.90;99.90
19868;DHT22;10096;51.112;6.776;2023-05-27T11:04:19;25.00;99.90
19868;DHT22;10096;51.112;6.776;2023-05-27T11:06:59;25.10;99.90
19868;DHT22;10096;51.112;6.776;2023-05-27T11:09:28;24.90;99.90
19868;DHT22;10096;51.112;6.776;2023-05-27T11:11:56;24.80;99.90
19868;DHT22;10096;51.112;6.776;2023-05-27T11:14:23;24.80;99.90
19868;DHT22;10096;51.112;6.776;2023-05-27T11:16:51;24.50;99.90
19868;DHT22;10096;51.112;6.776;2023-05-27T11:19:20;24.40;99.90
19868;DHT22;10096;51.112;6.776;2023-05-27T11:21:50;24.40;99.90
19868;DHT22;10096;51.112;6.776;2023-05-27T11:24:18;24.60;99.90
19868;DHT22;10096;51.112;6.776;2023-05-27T11:26:49;24.40;99.90
19868;DHT22;10096;51.112;6.776;2023-05-27T11:29:17;25.00;99.90
19868;DHT22;10096;51.112;6.776;2023-05-27T11:31:46;25.30;99.90
19868;DHT22;10096;51.112;6.776;2023-05-27T11:34:16;25.00;99.90
19868;DHT22;10096;51.112;6.776;2023-05-27T11:36:48;25.00;99.90
19868;DHT22;10096;51.112;6.776;2023-05-27T11:39:19;24.80;99.90
19868;DHT22;10096;51.112;6.776;2023-05-27T11:41:53;24.80;99.90
19868;DHT22;10096;51.112;6.776;2023-05-27T11:44:22;24.70;99.90
19868;DHT22;10096;51.112;6.776;2023-05-27T11:46:51;24.60;99.90
19868;DHT22;10096;51.112;6.776;2023-05-27T11:49:19;24.70;99.90
19868;DHT22;10096;51.112;6.776;2023-05-27T11:51:49;24.50;99.90
19868;DHT22;10096;51.112;6.776;2023-05-27T11:54:22;24.50;99.90
19868;DHT22;10096;51.112;6.776;2023-05-27T11:56:52;24.70;99.90
19868;DHT22;10096;51.112;6.776;2023-05-27T11:59:21;24.60;99.90
19868;DHT22;10096;51.112;6.776;2023-05-27T12:01:49;24.70;99.90
19868;DHT22;10096;51.112;6.776;2023-05-27T12:04:19;24.90;99.90
19868;DHT22;10096;51.112;6.776;2023-05-27T12:06:47;24.80;99.90
19868;DHT22;10096;51.112;6.776;2023-05-27T12:09:21;24.90;99.90
19868;DHT22;10096;51.112;6.776;2023-05-27T12:11:52;25.10;99.90
19868;DHT22;10096;51.112;6.776;2023-05-27T12:14:20;25.30;99.90
19868;DHT22;10096;51.112;6.776;2023-05-27T12:16:52;25.40;99.90
19868;DHT22;10096;51.112;6.776;2023-05-27T12:19:22;25.00;99.90
19868;DHT22;10096;51.112;6.776;2023-05-27T12:21:51;24.90;99.90
19868;DHT22;10096;51.112;6.776;2023-05-27T12:24:21;24.70;99.90
19868;DHT22;10096;51.112;6.776;2023-05-27T12:26:49;24.60;99.90
19868;DHT22;10096;51.112;6.776;2023-05-27T12:29:18;24.60;99.90
19868;DHT22;10096;51.112;6.776;2023-05-27T12:31:47;24.70;99.90
19868;DHT22;10096;51.112;6.776;2023-05-27T12:34:18;24.50;99.90
19868;DHT22;10096;51.112;6.776;2023-05-27T12:36:46;24.70;99.90
19868;DHT22;10096;51.112;6.776;2023-05-27T12:39:14;24.50;99.90
19868;DHT22;10096;51.112;6.776;2023-05-27T12:41:43;24.60;99.90
19868;DHT22;10096;51.112;6.776;2023-05-27T12:44:13;24.60;99.90
19868;DHT22;10096;51.112;6.776;2023-05-27T12:46:43;24.70;99.90
19868;DHT22;10096;51.112;6.776;2023-05-27T12:49:10;24.80;99.90
19868;DHT22;10096;51.112;6.776;2023-05-27T12:51:38;24.90;99.90
19868;DHT22;10096;51.112;6.776;2023-05-27T12:54:09;25.10;99.90
19868;DHT22;10096;51.112;6.776;2023-05-27T12:56:37;25.20;99.90
19868;DHT22;10096;51.112;6.776;2023-05-27T12:59:07;25.00;99.90
19868;DHT22;10096;51.112;6.776;2023-05-27T13:01:35;25.00;99.90
19868;DHT22;10096;51.112;6.776;2023-05-27T13:04:06;24.70;99.90
19868;DHT22;10096;51.112;6.776;2023-05-27T13:06:36;24.80;99.90
19868;DHT22;10096;51.112;6.776;2023-05-27T13:09:04;25.00;99.90
19868;DHT22;10096;51.112;6.776;2023-05-27T13:11:33;25.00;99.90
19868;DHT22;10096;51.112;6.776;2023-05-27T13:14:02;25.10;99.90
19868;DHT22;10096;51.112;6.776;2023-05-27T13:16:30;25.20;99.90
19868;DHT22;10096;51.112;6.776;2023-05-27T13:18:59;25.30;99.90
19868;DHT22;10096;51.112;6.776;2023-05-27T13:21:30;25.00;99.90
19868;DHT22;10096;51.112;6.776;2023-05-27T13:23:58;25.00;99.90
19868;DHT22;10096;51.112;6.776;2023-05-27T13:26:28;24.80;99.90
19868;DHT22;10096;51.112;6.776;2023-05-27T13:28:57;24.90;99.90
19868;DHT22;10096;51.112;6.776;2023-05-27T13:31:26;24.80;99.90
19868;DHT22;10096;51.112;6.776;2023-05-27T13:33:54;24.90;99.90
19868;DHT22;10096;51.112;6.776;2023-05-27T13:36:25;24.90;99.90
19868;DHT22;10096;51.112;6.776;2023-05-27T13:38:54;24.90;99.90
19868;DHT22;10096;51.112;6.776;2023-05-27T13:41:24;24.70;99.90
19868;DHT22;10096;51.112;6.776;2023-05-27T13:43:52;24.60;99.90
19868;DHT22;10096;51.112;6.776;2023-05-27T13:46:21;24.80;99.90
19868;DHT22;10096;51.112;6.776;2023-05-27T13:48:50;24.70;99.90
19868;DHT22;10096;51.112;6.776;2023-05-27T13:51:18;24.80;99.90
19868;DHT22;10096;51.112;6.776;2023-05-27T13:53:47;24.70;99.90
19868;DHT22;10096;51.112;6.776;2023-05-27T13:56:16;24.90;99.90
19868;DHT22;10096;51.112;6.776;2023-05-27T13:58:45;25.00;99.90
19868;DHT22;10096;51.112;6.776;2023-05-27T14:01:15;24.90;99.90
19868;DHT22;10096;51.112;6.776;2023-05-27T14:03:50;24.90;99.90
19868;DHT22;10096;51.112;6.776;2023-05-27T14:06:18;24.70;99.90
19868;DHT22;10096;51.112;6.776;2023-05-27T14:08:46;24.80;99.90
19868;DHT22;10096;51.112;6.776;2023-05-27T14:11:15;25.10;99.90
19868;DHT22;10096;51.112;6.776;2023-05-27T14:13:48;25.10;99.90
19868;DHT22;10096;51.112;6.776;2023-05-27T14:16:16;24.90;99.90
19868;DHT22;10096;51.112;6.776;2023-05-27T14:18:49;24.80;99.90
19868;DHT22;10096;51.112;6.776;2023-05-27T14:21:18;24.70;99.90
19868;DHT22;10096;51.112;6.776;2023-05-27T14:23:47;24.60;99.90
19868;DHT22;10096;51.112;6.776;2023-05-27T14:26:18;24.50;99.90
19868;DHT22;10096;51.112;6.776;2023-05-27T14:28:51;24.50;99.90
19868;DHT22;10096;51.112;6.776;2023-05-27T14:31:19;24.40;99.90
19868;DHT22;10096;51.112;6.776;2023-05-27T14:33:48;24.50;99.90
19868;DHT22;10096;51.112;6.776;2023-05-27T14:36:15;24.40;99.90
19868;DHT22;10096;51.112;6.776;2023-05-27T14:38:43;24.70;99.90
19868;DHT22;10096;51.112;6.776;2023-05-27T14:41:11;24.70;99.90
19868;DHT22;10096;51.112;6.776;2023-05-27T14:43:40;24.90;99.90
19868;DHT22;10096;51.112;6.776;2023-05-27T14:46:08;24.80;99.90
19868;DHT22;10096;51.112;6.776;2023-05-27T14:48:35;24.70;99.90
19868;DHT22;10096;51.112;6.776;2023-05-27T14:51:03;24.70;99.90
19868;DHT22;10096;51.112;6.776;2023-05-27T14:53:31;24.70;99.90
19868;DHT22;10096;51.112;6.776;2023-05-27T14:56:07;24.70;99.90
19868;DHT22;10096;51.112;6.776;2023-05-27T14:58:35;24.60;99.90
19868;DHT22;10096;51.112;6.776;2023-05-27T15:01:10;24.80;99.90
19868;DHT22;10096;51.112;6.776;2023-05-27T15:03:43;24.90;99.90
19868;DHT22;10096;51.112;6.776;2023-05-27T15:06:11;24.90;99.90
19868;DHT22;10096;51.112;6.776;2023-05-27T15:08:39;24.80;99.90
19868;DHT22;10096;51.112;6.776;2023-05-27T15:11:10;24.60;99.90
19868;DHT22;10096;51.112;6.776;2023-05-27T15:13:38;24.60;99.90
19868;DHT22;10096;51.112;6.776;2023-05-27T15:16:07;24.60;99.90
19868;DHT22;10096;51.112;6.776;2023-05-27T15:18:35;24.60;99.90
19868;DHT22;10096;51.112;6.776;2023-05-27T15:21:03;24.50;99.90
19868;DHT22;10096;51.112;6.776;2023-05-27T15:23:30;24.40;99.90
19868;DHT22;10096;51.112;6.776;2023-05-27T15:26:00;24.30;99.90
19868;DHT22;10096;51.112;6.776;2023-05-27T15:28:31;24.40;99.90
19868;DHT22;10096;51.112;6.776;2023-05-27T15:30:59;24.50;99.90
19868;DHT22;10096;51.112;6.776;2023-05-27T15:33:30;24.40;99.90
19868;DHT22;10096;51.112;6.776;2023-05-27T15:35:57;24.30;99.90
19868;DHT22;10096;51.112;6.776;2023-05-27T15:38:25;24.40;99.90
19868;DHT22;10096;51.112;6.776;2023-05-27T15:40:52;24.30;99.90
19868;DHT22;10096;51.112;6.776;2023-05-27T15:43:21;24.20;99.90
19868;DHT22;10096;51.112;6.776;2023-05-27T15:45:49;24.20;99.90
19868;DHT22;10096;51.112;6.776;2023-05-27T15:48:19;24.20;99.90